sensor_id;sensor_type;location;lat;lon;timestamp;pressure;altitude;pressure_sealevel;temperature;humidity
27729;BME280;15126;42.186;24.340;2023-11-19T00:01:02;99119.34;;;7.38;59.42
27729;BME280;15126;42.186;24.340;2023-11-19T00:03:31;99112.16;;;7.41;59.65
27729;BME280;15126;42.186;24.340;2023-11-19T00:05:59;99103.84;;;7.41;59.02
27729;BME280;15126;42.186;24.340;2023-11-19T00:08:25;99111.06;;;7.31;59.84
27729;BME280;15126;42.186;24.340;2023-11-19T00:10:52;99106.75;;;7.30;59.58
27729;BME280;15126;42.186;24.340;2023-11-19T00:13:19;99096.88;;;7.26;60.28
27729;BME280;15126;42.186;24.340;2023-11-19T00:15:47;99098.06;;;7.28;59.87
27729;BME280;15126;42.186;24.340;2023-11-19T00:18:14;99113.41;;;7.36;59.98
27729;BME280;15126;42.186;24.340;2023-11-19T00:20:41;99124.41;;;7.43;59.31
27729;BME280;15126;42.186;24.340;2023-11-19T00:23:10;99130.81;;;7.37;60.34
27729;BME280;15126;42.186;24.340;2023-11-19T00:25:41;99113.84;;;7.31;60.04
27729;BME280;15126;42.186;24.340;2023-11-19T00:28:08;99148.63;;;7.39;59.38
27729;BME280;15126;42.186;24.340;2023-11-19T00:30:35;99131.59;;;7.41;59.63
27729;BME280;15126;42.186;24.340;2023-11-19T00:33:03;99141.91;;;7.37;60.67
27729;BME280;15126;42.186;24.340;2023-11-19T00:35:30;99130.91;;;7.30;60.57
27729;BME280;15126;42.186;24.340;2023-11-19T00:37:58;99135.53;;;7.40;60.09
27729;BME280;15126;42.186;24.340;2023-11-19T00:40:29;99127.78;;;7.28;60.21
27729;BME280;15126;42.186;24.340;2023-11-19T00:46:00;99154.59;;;7.38;59.20
27729;BME280;15126;42.186;24.340;2023-11-19T00:48:29;99136.34;;;7.40;59.42
27729;BME280;15126;42.186;24.340;2023-11-19T00:50:57;99135.53;;;7.40;60.38
27729;BME280;15126;42.186;24.340;2023-11-19T00:53:24;99135.06;;;7.48;58.99
27729;BME280;15126;42.186;24.340;2023-11-19T00:55:51;99133.53;;;7.44;59.86
27729;BME280;15126;42.186;24.340;2023-11-19T00:58:18;99124.50;;;7.36;60.27
27729;BME280;15126;42.186;24.340;2023-11-19T01:00:45;99137.13;;;7.41;60.08
27729;BME280;15126;42.186;24.340;2023-11-19T01:03:16;99154.47;;;7.48;60.12
27729;BME280;15126;42.186;24.340;2023-11-19T01:05:44;99155.31;;;7.45;59.75
27729;BME280;15126;42.186;24.340;2023-11-19T01:08:12;99163.69;;;7.42;59.88
27729;BME280;15126;42.186;24.340;2023-11-19T01:10:41;99155.41;;;7.35;59.95
27729;BME280;15126;42.186;24.340;2023-11-19T01:13:08;99144.47;;;7.20;61.23
27729;BME280;15126;42.186;24.340;2023-11-19T01:15:35;99149.84;;;7.38;60.92
27729;BME280;15126;42.186;24.340;2023-11-19T01:18:02;99152.25;;;7.36;60.93
27729;BME280;15126;42.186;24.340;2023-11-19T01:20:30;99156.56;;;7.37;60.36
27729;BME280;15126;42.186;24.340;2023-11-19T01:23:01;99152.94;;;7.44;60.88
27729;BME280;15126;42.186;24.340;2023-11-19T01:25:28;99160.91;;;7.42;61.42
27729;BME280;15126;42.186;24.340;2023-11-19T01:27:55;99152.63;;;7.38;61.92
27729;BME280;15126;42.186;24.340;2023-11-19T01:30:23;99167.19;;;7.46;61.86
27729;BME280;15126;42.186;24.340;2023-11-19T01:32:53;99169.50;;;7.51;62.23
27729;BME280;15126;42.186;24.340;2023-11-19T01:35:20;99160.03;;;7.48;60.69
27729;BME280;15126;42.186;24.340;2023-11-19T01:37:48;99130.81;;;7.37;60.52
27729;BME280;15126;42.186;24.340;2023-11-19T01:40:20;99166.03;;;7.43;61.35
27729;BME280;15126;42.186;24.340;2023-11-19T01:42:47;99167.94;;;7.50;60.68
27729;BME280;15126;42.186;24.340;2023-11-19T01:45:23;99162.47;;;7.43;60.56
27729;BME280;15126;42.186;24.340;2023-11-19T01:47:53;99164.03;;;7.44;61.29
27729;BME280;15126;42.186;24.340;2023-11-19T01:50:21;99162.09;;;7.41;61.37
27729;BME280;15126;42.186;24.340;2023-11-19T01:52:50;99169.72;;;7.33;61.65
27729;BME280;15126;42.186;24.340;2023-11-19T01:55:21;99163.75;;;7.35;60.81
27729;BME280;15126;42.186;24.340;2023-11-19T01:57:49;99159.47;;;7.27;61.52
27729;BME280;15126;42.186;24.340;2023-11-19T02:00:16;99165.03;;;7.23;61.64
27729;BME280;15126;42.186;24.340;2023-11-19T02:02:46;99167.41;;;7.25;61.64
27729;BME280;15126;42.186;24.340;2023-11-19T02:05:14;99172.50;;;7.33;61.09
27729;BME280;15126;42.186;24.340;2023-11-19T02:07:41;99168.16;;;7.29;61.95
27729;BME280;15126;42.186;24.340;2023-11-19T02:10:09;99170.94;;;7.29;62.37
27729;BME280;15126;42.186;24.340;2023-11-19T02:12:41;99166.59;;;7.28;61.88
27729;BME280;15126;42.186;24.340;2023-11-19T02:15:10;99183.63;;;7.26;62.54
27729;BME280;15126;42.186;24.340;2023-11-19T02:17:37;99172.97;;;7.25;62.33
27729;BME280;15126;42.186;24.340;2023-11-19T02:20:05;99177.69;;;7.28;61.59
27729;BME280;15126;42.186;24.340;2023-11-19T02:22:34;99167.81;;;7.23;62.10
27729;BME280;15126;42.186;24.340;2023-11-19T02:25:05;99165.84;;;7.24;60.70
27729;BME280;15126;42.186;24.340;2023-11-19T02:27:50;99173.88;;;7.14;61.95
27729;BME280;15126;42.186;24.340;2023-11-19T02:30:19;99165.16;;;7.12;62.03
27729;BME280;15126;42.186;24.340;2023-11-19T02:32:46;99168.28;;;7.18;61.86
27729;BME280;15126;42.186;24.340;2023-11-19T02:35:13;99179.81;;;7.13;61.98
27729;BME280;15126;42.186;24.340;2023-11-19T02:37:41;99188.09;;;7.16;62.16
27729;BME280;15126;42.186;24.340;2023-11-19T02:40:08;99193.66;;;7.16;61.11
27729;BME280;15126;42.186;24.340;2023-11-19T02:42:35;99194.03;;;7.18;62.04
27729;BME280;15126;42.186;24.340;2023-11-19T02:45:08;99188.47;;;7.18;62.16
27729;BME280;15126;42.186;24.340;2023-11-19T02:47:40;99169.16;;;7.11;61.92
27729;BME280;15126;42.186;24.340;2023-11-19T02:50:08;99179.34;;;7.22;61.18
27729;BME280;15126;42.186;24.340;2023-11-19T02:52:39;99180.13;;;7.22;62.10
27729;BME280;15126;42.186;24.340;2023-11-19T02:55:07;99171.47;;;7.16;61.48
27729;BME280;15126;42.186;24.340;2023-11-19T02:57:38;99167.88;;;7.19;61.96
27729;BME280;15126;42.186;24.340;2023-11-19T03:00:08;99164.41;;;7.08;63.78
27729;BME280;15126;42.186;24.340;2023-11-19T03:02:39;99169.53;;;7.10;62.54
27729;BME280;15126;42.186;24.340;2023-11-19T03:05:10;99169.94;;;7.12;61.67
27729;BME280;15126;42.186;24.340;2023-11-19T03:07:40;99172.38;;;7.06;62.57
27729;BME280;15126;42.186;24.340;2023-11-19T03:10:08;99185.72;;;7.15;61.27
27729;BME280;15126;42.186;24.340;2023-11-19T03:12:38;99181.06;;;7.08;62.70
27729;BME280;15126;42.186;24.340;2023-11-19T03:15:06;99176.25;;;7.12;61.81
27729;BME280;15126;42.186;24.340;2023-11-19T03:17:38;99186.16;;;7.13;62.81
27729;BME280;15126;42.186;24.340;2023-11-19T03:20:06;99160.19;;;6.93;62.59
27729;BME280;15126;42.186;24.340;2023-11-19T03:22:36;99188.94;;;7.10;62.13
27729;BME280;15126;42.186;24.340;2023-11-19T03:25:03;99189.00;;;7.06;63.06
27729;BME280;15126;42.186;24.340;2023-11-19T03:27:34;99196.91;;;7.04;62.71
27729;BME280;15126;42.186;24.340;2023-11-19T03:30:01;99197.69;;;7.08;62.73
27729;BME280;15126;42.186;24.340;2023-11-19T03:32:30;99206.81;;;7.05;64.30
27729;BME280;15126;42.186;24.340;2023-11-19T03:34:59;99191.03;;;6.99;63.42
27729;BME280;15126;42.186;24.340;2023-11-19T03:37:26;99205.63;;;7.06;62.54
27729;BME280;15126;42.186;24.340;2023-11-19T03:39:53;99205.59;;;7.10;61.28
27729;BME280;15126;42.186;24.340;2023-11-19T03:42:22;99198.44;;;7.12;62.81
27729;BME280;15126;42.186;24.340;2023-11-19T03:44:51;99211.47;;;7.15;61.51
27729;BME280;15126;42.186;24.340;2023-11-19T03:47:21;99198.44;;;7.12;62.50
27729;BME280;15126;42.186;24.340;2023-11-19T03:49:48;99204.38;;;7.14;61.12
27729;BME280;15126;42.186;24.340;2023-11-19T03:52:17;99209.56;;;7.09;62.96
27729;BME280;15126;42.186;24.340;2023-11-19T03:54:44;99210.75;;;7.11;61.19
27729;BME280;15126;42.186;24.340;2023-11-19T03:57:12;99208.81;;;7.05;61.02
27729;BME280;15126;42.186;24.340;2023-11-19T03:59:39;99216.84;;;6.92;61.28
27729;BME280;15126;42.186;24.340;2023-11-19T04:02:06;99219.59;;;6.92;61.82
27729;BME280;15126;42.186;24.340;2023-11-19T04:04:33;99224.38;;;6.88;61.84
27729;BME280;15126;42.186;24.340;2023-11-19T04:07:00;99235.00;;;7.00;61.05
27729;BME280;15126;42.186;24.340;2023-11-19T04:09:30;99225.53;;;6.94;61.65
27729;BME280;15126;42.186;24.340;2023-11-19T04:11:58;99242.94;;;6.95;61.92
27729;BME280;15126;42.186;24.340;2023-11-19T04:14:26;99227.53;;;6.90;61.91
27729;BME280;15126;42.186;24.340;2023-11-19T04:16:53;99234.25;;;6.93;60.82
27729;BME280;15126;42.186;24.340;2023-11-19T04:19:20;99229.47;;;6.93;61.71
27729;BME280;15126;42.186;24.340;2023-11-19T04:21:47;99234.38;;;6.79;61.87
27729;BME280;15126;42.186;24.340;2023-11-19T04:24:14;99236.72;;;6.80;61.10
27729;BME280;15126;42.186;24.340;2023-11-19T04:26:43;99242.25;;;6.80;61.18
27729;BME280;15126;42.186;24.340;2023-11-19T04:29:11;99232.78;;;6.74;61.65
27729;BME280;15126;42.186;24.340;2023-11-19T04:31:38;99228.41;;;6.77;61.57
27729;BME280;15126;42.186;24.340;2023-11-19T04:34:05;99245.47;;;6.72;62.45
27729;BME280;15126;42.186;24.340;2023-11-19T04:36:33;99241.94;;;6.71;61.44
27729;BME280;15126;42.186;24.340;2023-11-19T04:39:03;99251.06;;;6.68;62.13
27729;BME280;15126;42.186;24.340;2023-11-19T04:41:34;99248.25;;;6.72;60.78
27729;BME280;15126;42.186;24.340;2023-11-19T04:44:02;99247.06;;;6.73;62.30
27729;BME280;15126;42.186;24.340;2023-11-19T04:46:29;99247.50;;;6.71;61.59
27729;BME280;15126;42.186;24.340;2023-11-19T04:48:56;99236.38;;;6.75;61.27
27729;BME280;15126;42.186;24.340;2023-11-19T04:51:23;99232.13;;;6.63;61.94
27729;BME280;15126;42.186;24.340;2023-11-19T04:53:50;99253.50;;;6.59;62.94
27729;BME280;15126;42.186;24.340;2023-11-19T04:56:17;99256.69;;;6.57;62.67
27729;BME280;15126;42.186;24.340;2023-11-19T04:58:45;99259.84;;;6.52;62.01
27729;BME280;15126;42.186;24.340;2023-11-19T05:01:17;99259.13;;;6.45;62.22
27729;BME280;15126;42.186;24.340;2023-11-19T05:03:44;99259.09;;;6.48;62.63
27729;BME280;15126;42.186;24.340;2023-11-19T05:06:11;99253.25;;;6.36;62.76
27729;BME280;15126;42.186;24.340;2023-11-19T05:08:38;99244.16;;;6.32;62.91
27729;BME280;15126;42.186;24.340;2023-11-19T05:11:05;99271.78;;;6.46;62.21
27729;BME280;15126;42.186;24.340;2023-11-19T05:13:32;99262.75;;;6.35;62.84
27729;BME280;15126;42.186;24.340;2023-11-19T05:15:59;99272.59;;;6.43;63.22
27729;BME280;15126;42.186;24.340;2023-11-19T05:18:28;99275.00;;;6.37;62.67
27729;BME280;15126;42.186;24.340;2023-11-19T05:20:57;99273.41;;;6.36;62.67
27729;BME280;15126;42.186;24.340;2023-11-19T05:23:24;99286.81;;;6.41;62.83
27729;BME280;15126;42.186;24.340;2023-11-19T05:25:51;99287.63;;;6.42;64.12
27729;BME280;15126;42.186;24.340;2023-11-19T05:28:18;99290.81;;;6.40;63.21
27729;BME280;15126;42.186;24.340;2023-11-19T05:30:48;99295.13;;;6.45;64.61
27729;BME280;15126;42.186;24.340;2023-11-19T05:33:17;99297.09;;;6.48;63.32
27729;BME280;15126;42.186;24.340;2023-11-19T05:35:45;99308.97;;;6.45;64.03
27729;BME280;15126;42.186;24.340;2023-11-19T05:38:12;99307.00;;;6.45;63.85
27729;BME280;15126;42.186;24.340;2023-11-19T05:40:41;99308.19;;;6.44;64.00
27729;BME280;15126;42.186;24.340;2023-11-19T05:43:08;99322.81;;;6.52;63.45
27729;BME280;15126;42.186;24.340;2023-11-19T05:45:43;99330.25;;;6.62;63.18
27729;BME280;15126;42.186;24.340;2023-11-19T05:48:10;99329.03;;;6.67;63.46
27729;BME280;15126;42.186;24.340;2023-11-19T05:50:38;99325.09;;;6.64;63.19
27729;BME280;15126;42.186;24.340;2023-11-19T05:53:06;99329.03;;;6.74;63.21
27729;BME280;15126;42.186;24.340;2023-11-19T05:55:36;99323.00;;;6.86;62.82
27729;BME280;15126;42.186;24.340;2023-11-19T05:58:14;99318.31;;;6.76;62.72
27729;BME280;15126;42.186;24.340;2023-11-19T06:00:42;99320.66;;;6.77;62.24
27729;BME280;15126;42.186;24.340;2023-11-19T06:03:09;99308.03;;;6.69;62.33
27729;BME280;15126;42.186;24.340;2023-11-19T06:05:36;99310.06;;;6.65;62.64
27729;BME280;15126;42.186;24.340;2023-11-19T06:08:03;99305.31;;;6.66;61.98
27729;BME280;15126;42.186;24.340;2023-11-19T06:10:38;99306.09;;;6.66;61.85
27729;BME280;15126;42.186;24.340;2023-11-19T06:13:05;99309.66;;;6.67;61.88
27729;BME280;15126;42.186;24.340;2023-11-19T06:15:33;99297.84;;;6.55;62.17
27729;BME280;15126;42.186;24.340;2023-11-19T06:18:03;99329.75;;;6.81;61.00
27729;BME280;15126;42.186;24.340;2023-11-19T06:20:32;99329.34;;;6.83;61.45
27729;BME280;15126;42.186;24.340;2023-11-19T06:22:59;99341.22;;;6.83;61.61
27729;BME280;15126;42.186;24.340;2023-11-19T06:25:27;99343.53;;;6.95;62.08
27729;BME280;15126;42.186;24.340;2023-11-19T06:27:55;99342.31;;;7.03;61.54
27729;BME280;15126;42.186;24.340;2023-11-19T06:30:27;99330.00;;;7.04;61.84
27729;BME280;15126;42.186;24.340;2023-11-19T06:32:59;99337.84;;;7.16;62.14
27729;BME280;15126;42.186;24.340;2023-11-19T06:35:27;99356.81;;;7.25;61.71
27729;BME280;15126;42.186;24.340;2023-11-19T06:38:02;99353.25;;;7.21;61.67
27729;BME280;15126;42.186;24.340;2023-11-19T06:40:30;99356.66;;;7.43;60.28
27729;BME280;15126;42.186;24.340;2023-11-19T06:43:03;99359.00;;;7.48;59.92
27729;BME280;15126;42.186;24.340;2023-11-19T06:45:30;99358.13;;;7.58;59.93
27729;BME280;15126;42.186;24.340;2023-11-19T06:47:57;99342.91;;;7.73;58.53
27729;BME280;15126;42.186;24.340;2023-11-19T06:50:36;99317.56;;;7.71;58.96
27729;BME280;15126;42.186;24.340;2023-11-19T06:53:04;99342.66;;;8.01;57.06
27729;BME280;15126;42.186;24.340;2023-11-19T06:55:32;99358.38;;;8.15;57.78
27729;BME280;15126;42.186;24.340;2023-11-19T06:58:01;99349.59;;;8.20;57.08
27729;BME280;15126;42.186;24.340;2023-11-19T07:00:28;99354.97;;;8.37;55.42
27729;BME280;15126;42.186;24.340;2023-11-19T07:02:58;99358.75;;;8.51;55.15
27729;BME280;15126;42.186;24.340;2023-11-19T07:05:25;99337.47;;;8.41;56.37
27729;BME280;15126;42.186;24.340;2023-11-19T07:07:52;99347.13;;;8.29;55.69
27729;BME280;15126;42.186;24.340;2023-11-19T07:10:19;99357.47;;;8.28;56.61
27729;BME280;15126;42.186;24.340;2023-11-19T07:12:46;99369.31;;;8.32;56.83
27729;BME280;15126;42.186;24.340;2023-11-19T07:15:17;99372.28;;;8.49;55.21
27729;BME280;15126;42.186;24.340;2023-11-19T07:17:44;99370.59;;;8.58;55.42
27729;BME280;15126;42.186;24.340;2023-11-19T07:20:11;99369.88;;;8.51;55.52
27729;BME280;15126;42.186;24.340;2023-11-19T07:22:42;99361.44;;;8.61;55.43
27729;BME280;15126;42.186;24.340;2023-11-19T07:25:12;99350.06;;;8.49;55.32
27729;BME280;15126;42.186;24.340;2023-11-19T07:27:39;99392.63;;;8.76;55.46
27729;BME280;15126;42.186;24.340;2023-11-19T07:30:07;99372.41;;;8.72;56.18
27729;BME280;15126;42.186;24.340;2023-11-19T07:32:36;99388.81;;;8.93;54.42
27729;BME280;15126;42.186;24.340;2023-11-19T07:35:05;99390.91;;;8.85;54.03
27729;BME280;15126;42.186;24.340;2023-11-19T07:37:33;99348.78;;;8.57;53.35
27729;BME280;15126;42.186;24.340;2023-11-19T07:40:03;99314.41;;;8.44;52.85
27729;BME280;15126;42.186;24.340;2023-11-19T07:42:30;99386.44;;;8.91;54.40
27729;BME280;15126;42.186;24.340;2023-11-19T07:44:58;99365.59;;;8.76;52.43
27729;BME280;15126;42.186;24.340;2023-11-19T07:47:25;99393.63;;;8.89;54.66
27729;BME280;15126;42.186;24.340;2023-11-19T07:49:56;99383.59;;;8.98;52.88
27729;BME280;15126;42.186;24.340;2023-11-19T07:52:23;99376.50;;;8.94;54.63
27729;BME280;15126;42.186;24.340;2023-11-19T07:54:52;99380.38;;;9.00;53.32
27729;BME280;15126;42.186;24.340;2023-11-19T07:57:22;99373.88;;;9.10;53.79
27729;BME280;15126;42.186;24.340;2023-11-19T07:59:53;99352.00;;;9.12;52.05
27729;BME280;15126;42.186;24.340;2023-11-19T08:02:20;99327.00;;;8.82;52.19
27729;BME280;15126;42.186;24.340;2023-11-19T08:04:52;99374.03;;;9.26;53.41
27729;BME280;15126;42.186;24.340;2023-11-19T08:07:24;99366.56;;;8.93;53.31
27729;BME280;15126;42.186;24.340;2023-11-19T08:09:51;99374.56;;;9.18;52.80
27729;BME280;15126;42.186;24.340;2023-11-19T08:12:18;99383.78;;;9.38;53.70
27729;BME280;15126;42.186;24.340;2023-11-19T08:14:45;99386.97;;;9.40;52.79
27729;BME280;15126;42.186;24.340;2023-11-19T08:17:12;99397.88;;;9.27;52.22
27729;BME280;15126;42.186;24.340;2023-11-19T08:19:39;99391.25;;;9.18;52.66
27729;BME280;15126;42.186;24.340;2023-11-19T08:22:08;99385.25;;;9.19;53.20
27729;BME280;15126;42.186;24.340;2023-11-19T08:24:36;99379.81;;;9.12;51.74
27729;BME280;15126;42.186;24.340;2023-11-19T08:27:06;99376.03;;;9.26;53.32
27729;BME280;15126;42.186;24.340;2023-11-19T08:29:33;99365.38;;;9.21;55.00
27729;BME280;15126;42.186;24.340;2023-11-19T08:32:01;99385.66;;;9.21;53.75
27729;BME280;15126;42.186;24.340;2023-11-19T08:34:29;99385.06;;;9.07;53.62
27729;BME280;15126;42.186;24.340;2023-11-19T08:36:56;99384.25;;;9.06;53.52
27729;BME280;15126;42.186;24.340;2023-11-19T08:39:25;99385.38;;;9.12;53.20
27729;BME280;15126;42.186;24.340;2023-11-19T08:41:56;99389.31;;;9.15;52.87
27729;BME280;15126;42.186;24.340;2023-11-19T08:44:23;99383.28;;;9.20;53.48
27729;BME280;15126;42.186;24.340;2023-11-19T08:46:50;99407.06;;;9.51;53.27
27729;BME280;15126;42.186;24.340;2023-11-19T08:49:17;99413.94;;;9.70;52.66
27729;BME280;15126;42.186;24.340;2023-11-19T08:51:47;99407.84;;;9.78;52.06
27729;BME280;15126;42.186;24.340;2023-11-19T08:54:46;99394.97;;;9.84;51.78
27729;BME280;15126;42.186;24.340;2023-11-19T08:57:14;99418.78;;;9.89;51.70
27729;BME280;15126;42.186;24.340;2023-11-19T08:59:41;99413.44;;;9.75;52.17
27729;BME280;15126;42.186;24.340;2023-11-19T09:02:09;99402.78;;;9.70;51.24
27729;BME280;15126;42.186;24.340;2023-11-19T09:04:36;99415.50;;;9.71;51.55
27729;BME280;15126;42.186;24.340;2023-11-19T09:07:03;99419.66;;;9.59;51.57
27729;BME280;15126;42.186;24.340;2023-11-19T09:09:31;99409.59;;;9.65;51.25
27729;BME280;15126;42.186;24.340;2023-11-19T09:12:01;99415.00;;;9.76;51.64
27729;BME280;15126;42.186;24.340;2023-11-19T09:14:31;99419.88;;;9.72;53.38
27729;BME280;15126;42.186;24.340;2023-11-19T09:16:59;99415.88;;;9.73;51.67
27729;BME280;15126;42.186;24.340;2023-11-19T09:19:32;99404.03;;;9.65;51.97
27729;BME280;15126;42.186;24.340;2023-11-19T09:22:01;99402.94;;;9.86;51.90
27729;BME280;15126;42.186;24.340;2023-11-19T09:24:28;99401.69;;;9.87;51.62
27729;BME280;15126;42.186;24.340;2023-11-19T09:26:58;99367.94;;;9.35;50.97
27729;BME280;15126;42.186;24.340;2023-11-19T09:29:25;99402.53;;;9.61;52.12
27729;BME280;15126;42.186;24.340;2023-11-19T09:31:56;99383.31;;;9.70;51.53
27729;BME280;15126;42.186;24.340;2023-11-19T09:34:39;99392.38;;;9.97;50.30
27729;BME280;15126;42.186;24.340;2023-11-19T09:37:06;99384.53;;;9.92;51.09
27729;BME280;15126;42.186;24.340;2023-11-19T09:39:36;99397.34;;;10.09;50.11
27729;BME280;15126;42.186;24.340;2023-11-19T09:42:03;99396.88;;;10.14;50.01
27729;BME280;15126;42.186;24.340;2023-11-19T09:44:31;99386.31;;;10.25;49.06
27729;BME280;15126;42.186;24.340;2023-11-19T09:47:01;99393.72;;;10.35;49.49
27729;BME280;15126;42.186;24.340;2023-11-19T09:49:29;99406.78;;;10.38;49.54
27729;BME280;15126;42.186;24.340;2023-11-19T09:51:57;99409.34;;;10.29;49.75
27729;BME280;15126;42.186;24.340;2023-11-19T09:54:24;99380.94;;;10.14;50.42
27729;BME280;15126;42.186;24.340;2023-11-19T09:56:51;99417.81;;;10.45;51.37
27729;BME280;15126;42.186;24.340;2023-11-19T09:59:18;99410.09;;;10.53;49.14
27729;BME280;15126;42.186;24.340;2023-11-19T10:01:48;99410.31;;;10.62;49.17
27729;BME280;15126;42.186;24.340;2023-11-19T10:04:18;99403.50;;;10.63;47.36
27729;BME280;15126;42.186;24.340;2023-11-19T10:06:46;99402.44;;;10.57;46.44
27729;BME280;15126;42.186;24.340;2023-11-19T10:09:16;99404.00;;;10.58;47.47
27729;BME280;15126;42.186;24.340;2023-11-19T10:11:43;99395.06;;;10.66;47.08
27729;BME280;15126;42.186;24.340;2023-11-19T10:14:10;99381.69;;;10.58;47.38
27729;BME280;15126;42.186;24.340;2023-11-19T10:16:40;99380.03;;;10.60;46.61
27729;BME280;15126;42.186;24.340;2023-11-19T10:19:12;99381.13;;;10.66;49.16
27729;BME280;15126;42.186;24.340;2023-11-19T10:21:46;99349.41;;;10.41;46.87
27729;BME280;15126;42.186;24.340;2023-11-19T10:24:13;99385.41;;;10.71;48.70
27729;BME280;15126;42.186;24.340;2023-11-19T10:26:40;99377.63;;;10.62;47.50
27729;BME280;15126;42.186;24.340;2023-11-19T10:29:08;99360.41;;;10.67;48.81
27729;BME280;15126;42.186;24.340;2023-11-19T10:31:35;99351.47;;;10.56;48.99
27729;BME280;15126;42.186;24.340;2023-11-19T10:34:04;99337.59;;;10.53;47.94
27729;BME280;15126;42.186;24.340;2023-11-19T10:36:54;99330.44;;;10.52;48.75
27729;BME280;15126;42.186;24.340;2023-11-19T10:39:21;99341.38;;;10.62;49.58
27729;BME280;15126;42.186;24.340;2023-11-19T10:41:53;99349.66;;;10.66;49.45
27729;BME280;15126;42.186;24.340;2023-11-19T10:44:32;99335.88;;;10.59;48.88
27729;BME280;15126;42.186;24.340;2023-11-19T10:47:01;99350.78;;;10.68;47.14
27729;BME280;15126;42.186;24.340;2023-11-19T10:49:32;99346.16;;;10.62;49.17
27729;BME280;15126;42.186;24.340;2023-11-19T10:52:03;99336.09;;;10.68;49.07
27729;BME280;15126;42.186;24.340;2023-11-19T10:54:34;99324.28;;;10.60;48.00
27729;BME280;15126;42.186;24.340;2023-11-19T10:57:02;99319.34;;;10.68;48.72
27729;BME280;15126;42.186;24.340;2023-11-19T10:59:30;99326.84;;;10.71;47.99
27729;BME280;15126;42.186;24.340;2023-11-19T11:02:00;99328.34;;;10.75;48.18
27729;BME280;15126;42.186;24.340;2023-11-19T11:04:32;99326.75;;;10.74;47.58
27729;BME280;15126;42.186;24.340;2023-11-19T11:07:01;99326.84;;;10.71;48.56
27729;BME280;15126;42.186;24.340;2023-11-19T11:09:30;99320.06;;;10.72;49.19
27729;BME280;15126;42.186;24.340;2023-11-19T11:11:59;99323.41;;;10.83;49.70
27729;BME280;15126;42.186;24.340;2023-11-19T11:14:29;99338.81;;;10.88;48.33
27729;BME280;15126;42.186;24.340;2023-11-19T11:16:58;99328.19;;;10.83;47.53
27729;BME280;15126;42.186;24.340;2023-11-19T11:19:25;99329.75;;;10.84;47.67
27729;BME280;15126;42.186;24.340;2023-11-19T11:21:54;99323.16;;;10.94;48.72
27729;BME280;15126;42.186;24.340;2023-11-19T11:24:48;99317.06;;;10.99;48.44
27729;BME280;15126;42.186;24.340;2023-11-19T11:27:43;99315.84;;;11.00;48.30
27729;BME280;15126;42.186;24.340;2023-11-19T11:30:29;99311.75;;;11.04;46.75
27729;BME280;15126;42.186;24.340;2023-11-19T11:33:10;99318.47;;;11.07;47.48
27729;BME280;15126;42.186;24.340;2023-11-19T11:35:55;99308.38;;;11.13;48.40
27729;BME280;15126;42.186;24.340;2023-11-19T11:38:33;99293.88;;;11.18;47.79
27729;BME280;15126;42.186;24.340;2023-11-19T11:41:20;99293.19;;;10.98;47.20
27729;BME280;15126;42.186;24.340;2023-11-19T11:43:49;99278.78;;;10.99;46.73
27729;BME280;15126;42.186;24.340;2023-11-19T11:46:53;99294.59;;;11.06;48.05
27729;BME280;15126;42.186;24.340;2023-11-19T11:49:28;99286.38;;;10.99;48.23
27729;BME280;15126;42.186;24.340;2023-11-19T11:52:03;99290.22;;;11.05;48.76
27729;BME280;15126;42.186;24.340;2023-11-19T11:54:30;99274.34;;;11.02;47.61
27729;BME280;15126;42.186;24.340;2023-11-19T11:57:07;99295.25;;;10.94;48.80
27729;BME280;15126;42.186;24.340;2023-11-19T11:59:46;99289.16;;;10.99;49.02
27729;BME280;15126;42.186;24.340;2023-11-19T12:02:15;99283.84;;;11.04;48.18
27729;BME280;15126;42.186;24.340;2023-11-19T12:04:43;99280.25;;;11.04;47.45
27729;BME280;15126;42.186;24.340;2023-11-19T12:07:15;99273.91;;;11.03;48.38
27729;BME280;15126;42.186;24.340;2023-11-19T12:09:46;99264.66;;;11.06;49.02
27729;BME280;15126;42.186;24.340;2023-11-19T12:12:27;99240.75;;;10.89;47.29
27729;BME280;15126;42.186;24.340;2023-11-19T12:15:04;99247.75;;;10.97;47.73
27729;BME280;15126;42.186;24.340;2023-11-19T12:17:47;99254.97;;;10.95;47.89
27729;BME280;15126;42.186;24.340;2023-11-19T12:20:21;99206.47;;;10.56;47.91
27729;BME280;15126;42.186;24.340;2023-11-19T12:22:50;99260.44;;;10.82;48.23
27729;BME280;15126;42.186;24.340;2023-11-19T12:25:19;99276.41;;;10.82;49.30
27729;BME280;15126;42.186;24.340;2023-11-19T12:27:49;99259.75;;;10.78;48.57
27729;BME280;15126;42.186;24.340;2023-11-19T12:30:21;99274.84;;;10.81;47.49
27729;BME280;15126;42.186;24.340;2023-11-19T12:32:49;99248.47;;;10.65;48.52
27729;BME280;15126;42.186;24.340;2023-11-19T12:35:19;99264.25;;;10.72;48.02
27729;BME280;15126;42.186;24.340;2023-11-19T12:37:47;99248.91;;;10.64;48.26
27729;BME280;15126;42.186;24.340;2023-11-19T12:40:18;99245.00;;;10.61;47.46
27729;BME280;15126;42.186;24.340;2023-11-19T12:42:47;99219.34;;;10.50;49.08
27729;BME280;15126;42.186;24.340;2023-11-19T12:45:17;99230.03;;;10.52;48.64
27729;BME280;15126;42.186;24.340;2023-11-19T12:47:46;99247.44;;;10.59;47.92
27729;BME280;15126;42.186;24.340;2023-11-19T12:50:15;99241.47;;;10.57;47.71
27729;BME280;15126;42.186;24.340;2023-11-19T12:52:55;99235.34;;;10.46;48.68
27729;BME280;15126;42.186;24.340;2023-11-19T12:55:29;99240.56;;;10.44;48.10
27729;BME280;15126;42.186;24.340;2023-11-19T12:58:03;99232.38;;;10.37;49.49
27729;BME280;15126;42.186;24.340;2023-11-19T13:00:33;99218.84;;;10.36;48.92
27729;BME280;15126;42.186;24.340;2023-11-19T13:03:02;99165.44;;;10.01;49.45
27729;BME280;15126;42.186;24.340;2023-11-19T13:05:31;99171.06;;;9.98;49.38
27729;BME280;15126;42.186;24.340;2023-11-19T13:08:02;99214.66;;;10.28;49.03
27729;BME280;15126;42.186;24.340;2023-11-19T13:10:30;99207.59;;;10.23;50.20
27729;BME280;15126;42.186;24.340;2023-11-19T13:13:08;99205.53;;;10.27;50.90